sensor_id;sensor_type;location;lat;lon;timestamp;P1;durP1;ratioP1;P2;durP2;ratioP2
13204;SDS011;6667;52.634;9.226;2022-09-09T04:28:55;1.60;;;1.37;;
13204;SDS011;6667;52.634;9.226;2022-09-09T04:31:22;3.03;;;1.33;;
13204;SDS011;6667;52.634;9.226;2022-09-09T04:33:49;5.40;;;2.00;;
13204;SDS011;6667;52.634;9.226;2022-09-09T04:36:16;3.20;;;1.40;;
13204;SDS011;6667;52.634;9.226;2022-09-09T04:38:44;2.13;;;1.33;;
13204;SDS011;6667;52.634;9.226;2022-09-09T04:41:10;1.63;;;1.53;;
13204;SDS011;6667;52.634;9.226;2022-09-09T04:43:38;3.13;;;1.70;;
13204;SDS011;6667;52.634;9.226;2022-09-09T04:46:06;2.07;;;1.20;;
13204;SDS011;6667;52.634;9.226;2022-09-09T04:48:33;1.60;;;1.20;;
13204;SDS011;6667;52.634;9.226;2022-09-09T04:51:00;3.33;;;1.50;;
13204;SDS011;6667;52.634;9.226;2022-09-09T04:53:28;2.27;;;1.20;;
13204;SDS011;6667;52.634;9.226;2022-09-09T04:56:01;4.47;;;1.30;;
13204;SDS011;6667;52.634;9.226;2022-09-09T04:58:29;3.87;;;1.30;;
13204;SDS011;6667;52.634;9.226;2022-09-09T05:01:02;4.53;;;1.60;;
13204;SDS011;6667;52.634;9.226;2022-09-09T05:03:34;3.63;;;1.50;;
13204;SDS011;6667;52.634;9.226;2022-09-09T05:06:05;2.43;;;1.37;;
13204;SDS011;6667;52.634;9.226;2022-09-09T05:08:33;1.80;;;1.40;;
13204;SDS011;6667;52.634;9.226;2022-09-09T05:11:00;2.90;;;1.60;;
13204;SDS011;6667;52.634;9.226;2022-09-09T05:13:26;2.90;;;1.40;;
13204;SDS011;6667;52.634;9.226;2022-09-09T05:15:53;2.00;;;1.77;;
13204;SDS011;6667;52.634;9.226;2022-09-09T05:18:22;1.90;;;1.50;;
13204;SDS011;6667;52.634;9.226;2022-09-09T05:20:48;4.97;;;1.53;;
13204;SDS011;6667;52.634;9.226;2022-09-09T05:23:16;1.60;;;1.43;;
13204;SDS011;6667;52.634;9.226;2022-09-09T05:25:42;4.63;;;1.70;;
13204;SDS011;6667;52.634;9.226;2022-09-09T05:28:11;5.00;;;1.93;;
13204;SDS011;6667;52.634;9.226;2022-09-09T05:30:38;2.90;;;1.57;;
13204;SDS011;6667;52.634;9.226;2022-09-09T05:33:04;2.27;;;1.43;;
13204;SDS011;6667;52.634;9.226;2022-09-09T05:35:33;2.17;;;1.87;;
13204;SDS011;6667;52.634;9.226;2022-09-09T05:38:00;1.50;;;1.40;;
13204;SDS011;6667;52.634;9.226;2022-09-09T05:40:26;4.80;;;1.90;;
13204;SDS011;6667;52.634;9.226;2022-09-09T05:42:53;4.13;;;1.90;;
13204;SDS011;6667;52.634;9.226;2022-09-09T05:45:20;4.20;;;2.03;;
13204;SDS011;6667;52.634;9.226;2022-09-09T05:47:50;2.97;;;1.90;;
13204;SDS011;6667;52.634;9.226;2022-09-09T05:50:18;4.30;;;1.77;;
13204;SDS011;6667;52.634;9.226;2022-09-09T05:52:46;3.20;;;1.70;;
13204;SDS011;6667;52.634;9.226;2022-09-09T05:55:14;3.83;;;1.80;;
13204;SDS011;6667;52.634;9.226;2022-09-09T05:57:41;3.47;;;1.50;;
13204;SDS011;6667;52.634;9.226;2022-09-09T06:00:08;2.13;;;1.90;;
13204;SDS011;6667;52.634;9.226;2022-09-09T06:02:37;4.30;;;2.37;;
13204;SDS011;6667;52.634;9.226;2022-09-09T06:05:04;2.70;;;2.20;;
13204;SDS011;6667;52.634;9.226;2022-09-09T06:07:31;2.60;;;1.80;;
13204;SDS011;6667;52.634;9.226;2022-09-09T06:09:59;4.67;;;1.77;;
13204;SDS011;6667;52.634;9.226;2022-09-09T06:12:26;2.67;;;1.73;;
13204;SDS011;6667;52.634;9.226;2022-09-09T06:14:52;3.10;;;1.97;;
13204;SDS011;6667;52.634;9.226;2022-09-09T06:17:19;4.90;;;2.50;;
13204;SDS011;6667;52.634;9.226;2022-09-09T06:19:45;1.93;;;1.57;;
13204;SDS011;6667;52.634;9.226;2022-09-09T06:22:12;2.50;;;2.07;;
13204;SDS011;6667;52.634;9.226;2022-09-09T06:24:39;4.57;;;1.90;;
13204;SDS011;6667;52.634;9.226;2022-09-09T06:27:07;3.60;;;2.60;;
13204;SDS011;6667;52.634;9.226;2022-09-09T06:29:33;9.30;;;2.57;;
13204;SDS011;6667;52.634;9.226;2022-09-09T06:32:00;3.30;;;2.10;;
13204;SDS011;6667;52.634;9.226;2022-09-09T06:34:27;3.43;;;1.67;;
13204;SDS011;6667;52.634;9.226;2022-09-09T06:36:54;2.53;;;2.07;;
13204;SDS011;6667;52.634;9.226;2022-09-09T06:39:22;6.97;;;2.03;;
13204;SDS011;6667;52.634;9.226;2022-09-09T06:41:49;4.67;;;1.73;;
13204;SDS011;6667;52.634;9.226;2022-09-09T06:44:19;2.47;;;2.10;;
13204;SDS011;6667;52.634;9.226;2022-09-09T06:46:46;3.60;;;2.33;;
13204;SDS011;6667;52.634;9.226;2022-09-09T06:49:13;4.57;;;1.60;;
13204;SDS011;6667;52.634;9.226;2022-09-09T06:51:40;3.23;;;1.83;;
13204;SDS011;6667;52.634;9.226;2022-09-09T06:54:07;1.63;;;1.40;;
13204;SDS011;6667;52.634;9.226;2022-09-09T06:56:35;2.53;;;1.70;;
13204;SDS011;6667;52.634;9.226;2022-09-09T06:59:03;4.07;;;1.27;;
13204;SDS011;6667;52.634;9.226;2022-09-09T07:01:34;5.23;;;2.13;;
13204;SDS011;6667;52.634;9.226;2022-09-09T07:04:02;3.13;;;1.50;;
13204;SDS011;6667;52.634;9.226;2022-09-09T07:06:33;8.10;;;1.63;;
13204;SDS011;6667;52.634;9.226;2022-09-09T07:09:01;4.57;;;1.70;;
13204;SDS011;6667;52.634;9.226;2022-09-09T07:11:30;3.17;;;1.67;;
13204;SDS011;6667;52.634;9.226;2022-09-09T07:13:59;3.83;;;1.77;;
13204;SDS011;6667;52.634;9.226;2022-09-09T07:16:26;4.43;;;1.83;;
13204;SDS011;6667;52.634;9.226;2022-09-09T07:18:55;3.63;;;1.70;;
13204;SDS011;6667;52.634;9.226;2022-09-09T07:21:22;3.70;;;1.73;;
13204;SDS011;6667;52.634;9.226;2022-09-09T07:23:51;3.80;;;1.37;;
13204;SDS011;6667;52.634;9.226;2022-09-09T07:26:18;3.57;;;1.60;;
13204;SDS011;6667;52.634;9.226;2022-09-09T07:28:46;1.50;;;1.20;;
13204;SDS011;6667;52.634;9.226;2022-09-09T07:31:14;3.17;;;1.83;;
13204;SDS011;6667;52.634;9.226;2022-09-09T07:33:42;1.80;;;1.57;;
13204;SDS011;6667;52.634;9.226;2022-09-09T07:36:13;2.13;;;1.47;;
13204;SDS011;6667;52.634;9.226;2022-09-09T07:38:43;1.97;;;1.63;;
13204;SDS011;6667;52.634;9.226;2022-09-09T07:41:11;2.70;;;1.80;;
13204;SDS011;6667;52.634;9.226;2022-09-09T07:43:40;4.63;;;1.73;;
13204;SDS011;6667;52.634;9.226;2022-09-09T07:46:07;2.50;;;1.70;;
13204;SDS011;6667;52.634;9.226;2022-09-09T07:48:35;2.33;;;1.27;;
13204;SDS011;6667;52.634;9.226;2022-09-09T07:51:05;2.33;;;1.47;;
13204;SDS011;6667;52.634;9.226;2022-09-09T07:53:35;4.23;;;2.00;;
13204;SDS011;6667;52.634;9.226;2022-09-09T07:56:04;2.07;;;1.30;;
13204;SDS011;6667;52.634;9.226;2022-09-09T07:58:32;3.63;;;2.00;;
13204;SDS011;6667;52.634;9.226;2022-09-09T08:00:59;2.33;;;1.57;;
13204;SDS011;6667;52.634;9.226;2022-09-09T08:03:25;2.80;;;1.70;;
13204;SDS011;6667;52.634;9.226;2022-09-09T08:05:52;4.00;;;1.70;;
13204;SDS011;6667;52.634;9.226;2022-09-09T08:08:18;3.10;;;1.60;;
13204;SDS011;6667;52.634;9.226;2022-09-09T08:10:46;4.80;;;1.73;;
13204;SDS011;6667;52.634;9.226;2022-09-09T08:13:13;3.67;;;1.60;;
13204;SDS011;6667;52.634;9.226;2022-09-09T08:15:40;4.27;;;1.80;;
13204;SDS011;6667;52.634;9.226;2022-09-09T08:18:08;4.30;;;1.80;;
13204;SDS011;6667;52.634;9.226;2022-09-09T08:20:35;5.17;;;1.73;;
13204;SDS011;6667;52.634;9.226;2022-09-09T08:23:03;2.37;;;1.27;;
13204;SDS011;6667;52.634;9.226;2022-09-09T08:25:30;2.17;;;1.40;;
13204;SDS011;6667;52.634;9.226;2022-09-09T08:27:59;3.17;;;1.43;;
13204;SDS011;6667;52.634;9.226;2022-09-09T08:30:26;2.87;;;1.70;;
13204;SDS011;6667;52.634;9.226;2022-09-09T08:32:53;3.17;;;1.30;;
13204;SDS011;6667;52.634;9.226;2022-09-09T08:35:19;3.65;;;1.67;;
13204;SDS011;6667;52.634;9.226;2022-09-09T08:37:46;2.70;;;1.40;;
13204;SDS011;6667;52.634;9.226;2022-09-09T08:40:16;3.87;;;1.10;;
13204;SDS011;6667;52.634;9.226;2022-09-09T08:42:48;3.65;;;1.83;;
13204;SDS011;6667;52.634;9.226;2022-09-09T08:45:25;3.60;;;1.20;;
13204;SDS011;6667;52.634;9.226;2022-09-09T08:48:12;2.30;;;1.27;;
13204;SDS011;6667;52.634;9.226;2022-09-09T08:50:50;3.22;;;1.50;;
13204;SDS011;6667;52.634;9.226;2022-09-09T08:53:19;4.80;;;1.55;;
13204;SDS011;6667;52.634;9.226;2022-09-09T08:55:48;3.38;;;1.17;;
13204;SDS011;6667;52.634;9.226;2022-09-09T08:58:16;3.80;;;1.25;;
13204;SDS011;6667;52.634;9.226;2022-09-09T09:03:48;3.65;;;1.35;;
13204;SDS011;6667;52.634;9.226;2022-09-09T09:06:24;4.53;;;1.55;;
13204;SDS011;6667;52.634;9.226;2022-09-09T09:09:03;3.22;;;1.70;;
13204;SDS011;6667;52.634;9.226;2022-09-09T09:11:35;1.50;;;1.25;;
13204;SDS011;6667;52.634;9.226;2022-09-09T09:14:04;4.88;;;1.73;;
13204;SDS011;6667;52.634;9.226;2022-09-09T09:16:40;3.63;;;1.60;;
13204;SDS011;6667;52.634;9.226;2022-09-09T09:19:14;4.03;;;1.35;;
13204;SDS011;6667;52.634;9.226;2022-09-09T09:21:43;3.17;;;1.58;;
13204;SDS011;6667;52.634;9.226;2022-09-09T09:24:13;4.50;;;1.58;;
13204;SDS011;6667;52.634;9.226;2022-09-09T09:26:44;4.35;;;1.50;;
13204;SDS011;6667;52.634;9.226;2022-09-09T09:29:12;4.05;;;1.52;;
13204;SDS011;6667;52.634;9.226;2022-09-09T09:31:43;5.82;;;1.70;;
13204;SDS011;6667;52.634;9.226;2022-09-09T09:34:12;3.50;;;1.98;;
13204;SDS011;6667;52.634;9.226;2022-09-09T09:36:40;4.72;;;1.42;;
13204;SDS011;6667;52.634;9.226;2022-09-09T09:39:09;5.05;;;1.30;;
13204;SDS011;6667;52.634;9.226;2022-09-09T09:41:36;5.72;;;1.50;;
13204;SDS011;6667;52.634;9.226;2022-09-09T09:44:05;5.45;;;1.67;;
13204;SDS011;6667;52.634;9.226;2022-09-09T09:46:52;4.53;;;1.55;;
13204;SDS011;6667;52.634;9.226;2022-09-09T09:49:30;4.55;;;1.40;;
13204;SDS011;6667;52.634;9.226;2022-09-09T09:51:59;3.67;;;1.30;;
13204;SDS011;6667;52.634;9.226;2022-09-09T09:54:27;3.90;;;2.08;;
13204;SDS011;6667;52.634;9.226;2022-09-09T09:56:55;2.65;;;1.30;;
13204;SDS011;6667;52.634;9.226;2022-09-09T09:59:23;3.00;;;1.33;;
13204;SDS011;6667;52.634;9.226;2022-09-09T10:02:10;3.40;;;1.67;;
13204;SDS011;6667;52.634;9.226;2022-09-09T10:04:41;3.00;;;1.35;;
13204;SDS011;6667;52.634;9.226;2022-09-09T10:07:09;1.38;;;1.17;;
13204;SDS011;6667;52.634;9.226;2022-09-09T10:09:37;3.97;;;1.52;;
13204;SDS011;6667;52.634;9.226;2022-09-09T10:12:05;2.97;;;1.55;;
13204;SDS011;6667;52.634;9.226;2022-09-09T10:14:43;3.35;;;1.30;;
13204;SDS011;6667;52.634;9.226;2022-09-09T10:17:20;4.43;;;1.45;;
13204;SDS011;6667;52.634;9.226;2022-09-09T10:19:55;2.88;;;1.17;;
13204;SDS011;6667;52.634;9.226;2022-09-09T10:22:37;4.43;;;1.65;;
13204;SDS011;6667;52.634;9.226;2022-09-09T10:25:21;2.53;;;1.10;;
13204;SDS011;6667;52.634;9.226;2022-09-09T10:28:07;4.85;;;1.08;;
13204;SDS011;6667;52.634;9.226;2022-09-09T10:30:49;2.72;;;1.10;;
13204;SDS011;6667;52.634;9.226;2022-09-09T10:33:27;2.55;;;1.40;;
13204;SDS011;6667;52.634;9.226;2022-09-09T10:36:00;4.22;;;1.42;;
13204;SDS011;6667;52.634;9.226;2022-09-09T10:38:38;4.45;;;1.42;;
13204;SDS011;6667;52.634;9.226;2022-09-09T10:41:14;3.58;;;1.35;;
13204;SDS011;6667;52.634;9.226;2022-09-09T10:43:52;2.45;;;1.25;;
13204;SDS011;6667;52.634;9.226;2022-09-09T10:46:31;2.17;;;1.25;;
13204;SDS011;6667;52.634;9.226;2022-09-09T10:49:13;5.07;;;1.88;;
13204;SDS011;6667;52.634;9.226;2022-09-09T10:51:49;2.10;;;1.17;;
13204;SDS011;6667;52.634;9.226;2022-09-09T10:54:28;5.35;;;1.50;;
13204;SDS011;6667;52.634;9.226;2022-09-09T10:57:07;2.35;;;1.15;;
13204;SDS011;6667;52.634;9.226;2022-09-09T10:59:40;3.08;;;1.20;;
13204;SDS011;6667;52.634;9.226;2022-09-09T11:02:12;2.92;;;1.30;;
13204;SDS011;6667;52.634;9.226;2022-09-09T11:04:47;3.17;;;1.38;;
13204;SDS011;6667;52.634;9.226;2022-09-09T11:07:22;2.72;;;0.93;;
13204;SDS011;6667;52.634;9.226;2022-09-09T11:09:55;1.67;;;0.93;;
13204;SDS011;6667;52.634;9.226;2022-09-09T11:12:27;6.05;;;1.48;;
13204;SDS011;6667;52.634;9.226;2022-09-09T11:14:57;3.80;;;1.05;;
13204;SDS011;6667;52.634;9.226;2022-09-09T11:17:31;4.25;;;1.40;;
13204;SDS011;6667;52.634;9.226;2022-09-09T11:20:10;2.90;;;1.25;;
13204;SDS011;6667;52.634;9.226;2022-09-09T11:22:39;4.03;;;0.93;;
13204;SDS011;6667;52.634;9.226;2022-09-09T11:25:14;5.78;;;1.20;;
13204;SDS011;6667;52.634;9.226;2022-09-09T11:27:44;1.65;;;0.85;;
13204;SDS011;6667;52.634;9.226;2022-09-09T11:30:21;3.13;;;0.93;;
13204;SDS011;6667;52.634;9.226;2022-09-09T11:32:55;2.05;;;0.90;;
13204;SDS011;6667;52.634;9.226;2022-09-09T11:35:50;1.85;;;0.93;;
13204;SDS011;6667;52.634;9.226;2022-09-09T11:38:31;3.30;;;0.80;;
13204;SDS011;6667;52.634;9.226;2022-09-09T11:41:07;2.03;;;0.80;;
13204;SDS011;6667;52.634;9.226;2022-09-09T11:43:38;2.10;;;1.30;;
13204;SDS011;6667;52.634;9.226;2022-09-09T11:46:07;0.93;;;0.80;;
13204;SDS011;6667;52.634;9.226;2022-09-09T11:48:36;2.15;;;0.93;;
13204;SDS011;6667;52.634;9.226;2022-09-09T11:51:06;2.70;;;0.80;;
13204;SDS011;6667;52.634;9.226;2022-09-09T11:53:35;1.40;;;0.75;;
13204;SDS011;6667;52.634;9.226;2022-09-09T11:56:13;1.75;;;1.13;;
13204;SDS011;6667;52.634;9.226;2022-09-09T11:58:55;2.80;;;0.90;;
13204;SDS011;6667;52.634;9.226;2022-09-09T12:01:33;2.17;;;0.70;;
13204;SDS011;6667;52.634;9.226;2022-09-09T12:04:06;3.45;;;1.00;;
13204;SDS011;6667;52.634;9.226;2022-09-09T12:06:44;2.42;;;1.10;;
13204;SDS011;6667;52.634;9.226;2022-09-09T12:09:17;1.65;;;1.00;;
13204;SDS011;6667;52.634;9.226;2022-09-09T12:11:49;3.20;;;1.00;;
13204;SDS011;6667;52.634;9.226;2022-09-09T12:14:22;2.05;;;1.10;;
13204;SDS011;6667;52.634;9.226;2022-09-09T12:17:08;2.80;;;1.00;;
13204;SDS011;6667;52.634;9.226;2022-09-09T12:19:36;1.75;;;1.10;;
13204;SDS011;6667;52.634;9.226;2022-09-09T12:22:05;2.75;;;1.63;;
13204;SDS011;6667;52.634;9.226;2022-09-09T12:24:43;2.45;;;1.00;;
13204;SDS011;6667;52.634;9.226;2022-09-09T12:27:15;2.65;;;1.00;;
13204;SDS011;6667;52.634;9.226;2022-09-09T12:29:47;3.92;;;1.50;;
13204;SDS011;6667;52.634;9.226;2022-09-09T12:32:22;1.75;;;0.90;;
13204;SDS011;6667;52.634;9.226;2022-09-09T12:34:51;2.67;;;1.10;;
13204;SDS011;6667;52.634;9.226;2022-09-09T12:37:24;4.40;;;1.20;;
13204;SDS011;6667;52.634;9.226;2022-09-09T12:39:55;1.50;;;1.00;;
13204;SDS011;6667;52.634;9.226;2022-09-09T12:42:23;1.77;;;1.05;;
13204;SDS011;6667;52.634;9.226;2022-09-09T12:44:54;2.63;;;1.65;;
13204;SDS011;6667;52.634;9.226;2022-09-09T12:47:24;2.55;;;1.13;;
13204;SDS011;6667;52.634;9.226;2022-09-09T12:49:56;2.92;;;1.05;;
13204;SDS011;6667;52.634;9.226;2022-09-09T12:52:26;3.22;;;1.13;;
13204;SDS011;6667;52.634;9.226;2022-09-09T12:54:56;2.30;;;0.82;;
13204;SDS011;6667;52.634;9.226;2022-09-09T12:57:25;5.63;;;1.83;;
13204;SDS011;6667;52.634;9.226;2022-09-09T13:00:03;1.95;;;1.05;;
13204;SDS011;6667;52.634;9.226;2022-09-09T13:02:33;5.15;;;1.75;;
13204;SDS011;6667;52.634;9.226;2022-09-09T13:05:06;1.83;;;0.93;;
13204;SDS011;6667;52.634;9.226;2022-09-09T13:07:41;4.93;;;1.33;;
13204;SDS011;6667;52.634;9.226;2022-09-09T13:10:10;3.03;;;1.00;;
13204;SDS011;6667;52.634;9.226;2022-09-09T13:12:37;3.22;;;1.45;;
13204;SDS011;6667;52.634;9.226;2022-09-09T13:15:05;3.22;;;1.20;;
13204;SDS011;6667;52.634;9.226;2022-09-09T13:17:48;3.38;;;1.20;;
13204;SDS011;6667;52.634;9.226;2022-09-09T13:20:17;4.30;;;0.90;;
13204;SDS011;6667;52.634;9.226;2022-09-09T13:22:47;1.50;;;1.00;;
13204;SDS011;6667;52.634;9.226;2022-09-09T13:25:20;3.63;;;1.10;;
13204;SDS011;6667;52.634;9.226;2022-09-09T13:27:59;6.03;;;1.10;;
13204;SDS011;6667;52.634;9.226;2022-09-09T13:30:29;3.22;;;1.88;;
13204;SDS011;6667;52.634;9.226;2022-09-09T13:33:02;2.25;;;1.10;;
13204;SDS011;6667;52.634;9.226;2022-09-09T13:35:48;3.47;;;1.05;;
13204;SDS011;6667;52.634;9.226;2022-09-09T13:38:17;3.45;;;0.93;;
13204;SDS011;6667;52.634;9.226;2022-09-09T13:40:54;3.50;;;1.02;;
13204;SDS011;6667;52.634;9.226;2022-09-09T13:43:22;2.42;;;0.95;;
13204;SDS011;6667;52.634;9.226;2022-09-09T13:45:54;3.47;;;1.23;;
13204;SDS011;6667;52.634;9.226;2022-09-09T13:48:22;3.03;;;1.00;;
13204;SDS011;6667;52.634;9.226;2022-09-09T13:50:53;1.52;;;0.60;;
13204;SDS011;6667;52.634;9.226;2022-09-09T13:53:23;4.13;;;1.00;;
13204;SDS011;6667;52.634;9.226;2022-09-09T13:55:49;3.10;;;1.65;;
13204;SDS011;6667;52.634;9.226;2022-09-09T13:58:17;2.92;;;1.10;;
13204;SDS011;6667;52.634;9.226;2022-09-09T14:00:44;4.40;;;1.13;;
13204;SDS011;6667;52.634;9.226;2022-09-09T14:03:11;3.78;;;1.10;;
13204;SDS011;6667;52.634;9.226;2022-09-09T14:05:38;1.77;;;1.05;;
13204;SDS011;6667;52.634;9.226;2022-09-09T14:08:06;3.05;;;0.90;;
13204;SDS011;6667;52.634;9.226;2022-09-09T14:10:34;2.55;;;0.82;;
13204;SDS011;6667;52.634;9.226;2022-09-09T14:13:02;4.97;;;1.00;;
13204;SDS011;6667;52.634;9.226;2022-09-09T14:15:28;2.65;;;0.90;;
13204;SDS011;6667;52.634;9.226;2022-09-09T14:17:55;1.95;;;1.00;;
13204;SDS011;6667;52.634;9.226;2022-09-09T14:20:24;1.80;;;0.90;;
13204;SDS011;6667;52.634;9.226;2022-09-09T14:22:51;2.90;;;0.90;;
13204;SDS011;6667;52.634;9.226;2022-09-09T14:25:18;1.98;;;0.90;;
13204;SDS011;6667;52.634;9.226;2022-09-09T14:27:46;1.88;;;0.90;;
13204;SDS011;6667;52.634;9.226;2022-09-09T14:30:13;1.67;;;0.88;;
13204;SDS011;6667;52.634;9.226;2022-09-09T14:32:39;1.83;;;0.93;;
13204;SDS011;6667;52.634;9.226;2022-09-09T14:35:06;1.55;;;1.13;;
13204;SDS011;6667;52.634;9.226;2022-09-09T14:37:33;3.35;;;0.82;;
13204;SDS011;6667;52.634;9.226;2022-09-09T14:40:00;2.17;;;0.95;;
13204;SDS011;6667;52.634;9.226;2022-09-09T14:42:27;2.38;;;0.90;;
13204;SDS011;6667;52.634;9.226;2022-09-09T14:44:56;1.40;;;0.50;;
13204;SDS011;6667;52.634;9.226;2022-09-09T14:47:23;2.55;;;0.80;;
13204;SDS011;6667;52.634;9.226;2022-09-09T14:49:51;2.35;;;0.63;;
13204;SDS011;6667;52.634;9.226;2022-09-09T14:52:18;0.60;;;0.43;;
13204;SDS011;6667;52.634;9.226;2022-09-09T14:54:45;1.27;;;0.70;;
13204;SDS011;6667;52.634;9.226;2022-09-09T14:57:11;2.40;;;0.88;;
13204;SDS011;6667;52.634;9.226;2022-09-09T14:59:38;1.83;;;0.77;;
13204;SDS011;6667;52.634;9.226;2022-09-09T15:02:07;3.17;;;0.80;;
13204;SDS011;6667;52.634;9.226;2022-09-09T15:04:34;3.40;;;0.88;;
13204;SDS011;6667;52.634;9.226;2022-09-09T15:07:01;6.50;;;1.20;;
13204;SDS011;6667;52.634;9.226;2022-09-09T15:09:28;1.75;;;0.93;;
13204;SDS011;6667;52.634;9.226;2022-09-09T15:11:54;1.63;;;0.60;;
13204;SDS011;6667;52.634;9.226;2022-09-09T15:14:21;2.83;;;0.88;;
13204;SDS011;6667;52.634;9.226;2022-09-09T15:16:48;3.80;;;0.70;;
13204;SDS011;6667;52.634;9.226;2022-09-09T15:19:16;1.77;;;0.80;;
13204;SDS011;6667;52.634;9.226;2022-09-09T15:21:43;2.17;;;0.90;;
13204;SDS011;6667;52.634;9.226;2022-09-09T15:24:09;1.95;;;0.63;;
13204;SDS011;6667;52.634;9.226;2022-09-09T15:26:36;2.45;;;0.60;;
13204;SDS011;6667;52.634;9.226;2022-09-09T15:29:04;2.60;;;0.90;;
13204;SDS011;6667;52.634;9.226;2022-09-09T15:31:32;2.35;;;0.73;;
13204;SDS011;6667;52.634;9.226;2022-09-09T15:33:59;3.28;;;0.68;;
13204;SDS011;6667;52.634;9.226;2022-09-09T15:36:30;3.90;;;0.88;;
13204;SDS011;6667;52.634;9.226;2022-09-09T15:38:58;2.33;;;0.68;;
13204;SDS011;6667;52.634;9.226;2022-09-09T15:41:26;1.20;;;0.70;;
13204;SDS011;6667;52.634;9.226;2022-09-09T15:43:53;1.90;;;0.90;;
13204;SDS011;6667;52.634;9.226;2022-09-09T15:46:23;3.22;;;0.95;;
13204;SDS011;6667;52.634;9.226;2022-09-09T15:48:52;3.17;;;1.17;;
13204;SDS011;6667;52.634;9.226;2022-09-09T15:51:20;2.03;;;1.20;;
13204;SDS011;6667;52.634;9.226;2022-09-09T15:53:49;1.88;;;1.08;;
13204;SDS011;6667;52.634;9.226;2022-09-09T15:56:20;3.40;;;1.17;;
13204;SDS011;6667;52.634;9.226;2022-09-09T15:58:46;2.63;;;1.20;;
13204;SDS011;6667;52.634;9.226;2022-09-09T16:01:13;2.00;;;0.93;;
13204;SDS011;6667;52.634;9.226;2022-09-09T16:03:42;1.55;;;0.93;;
13204;SDS011;6667;52.634;9.226;2022-09-09T16:06:11;3.80;;;1.10;;
13204;SDS011;6667;52.634;9.226;2022-09-09T16:08:39;3.75;;;1.13;;
13204;SDS011;6667;52.634;9.226;2022-09-09T16:11:09;2.80;;;1.15;;
13204;SDS011;6667;52.634;9.226;2022-09-09T16:13:39;2.10;;;0.90;;
13204;SDS011;6667;52.634;9.226;2022-09-09T16:16:07;5.80;;;0.98;;
13204;SDS011;6667;52.634;9.226;2022-09-09T16:18:36;2.67;;;1.10;;
13204;SDS011;6667;52.634;9.226;2022-09-09T16:21:04;7.80;;;1.95;;
13204;SDS011;6667;52.634;9.226;2022-09-09T16:23:33;2.88;;;0.90;;
13204;SDS011;6667;52.634;9.226;2022-09-09T16:26:00;4.22;;;1.45;;
13204;SDS011;6667;52.634;9.226;2022-09-09T16:28:28;2.58;;;1.13;;
13204;SDS011;6667;52.634;9.226;2022-09-09T16:30:55;3.60;;;0.98;;
13204;SDS011;6667;52.634;9.226;2022-09-09T16:33:23;2.75;;;1.23;;
13204;SDS011;6667;52.634;9.226;2022-09-09T16:35:50;3.22;;;1.10;;
13204;SDS011;6667;52.634;9.226;2022-09-09T16:38:17;3.95;;;1.60;;
13204;SDS011;6667;52.634;9.226;2022-09-09T16:40:43;5.32;;;1.65;;
13204;SDS011;6667;52.634;9.226;2022-09-09T16:43:10;5.10;;;0.90;;
13204;SDS011;6667;52.634;9.226;2022-09-09T16:45:42;4.63;;;1.30;;
13204;SDS011;6667;52.634;9.226;2022-09-09T16:48:09;2.13;;;1.10;;
13204;SDS011;6667;52.634;9.226;2022-09-09T16:50:36;4.38;;;1.45;;
13204;SDS011;6667;52.634;9.226;2022-09-09T16:53:04;2.30;;;1.17;;
13204;SDS011;6667;52.634;9.226;2022-09-09T16:55:33;4.45;;;1.08;;
13204;SDS011;6667;52.634;9.226;2022-09-09T16:58:04;4.55;;;1.10;;
13204;SDS011;6667;52.634;9.226;2022-09-09T17:00:31;3.60;;;1.40;;
13204;SDS011;6667;52.634;9.226;2022-09-09T17:03:00;4.20;;;1.23;;
13204;SDS011;6667;52.634;9.226;2022-09-09T17:05:27;1.88;;;1.05;;
13204;SDS011;6667;52.634;9.226;2022-09-09T17:07:54;3.47;;;1.45;;
13204;SDS011;6667;52.634;9.226;2022-09-09T17:10:22;2.95;;;1.33;;
13204;SDS011;6667;52.634;9.226;2022-09-09T17:12:49;1.77;;;1.17;;
13204;SDS011;6667;52.634;9.226;2022-09-09T17:15:16;3.33;;;1.00;;
13204;SDS011;6667;52.634;9.226;2022-09-09T17:17:43;8.60;;;2.25;;
13204;SDS011;6667;52.634;9.226;2022-09-09T17:20:15;3.42;;;1.77;;
13204;SDS011;6667;52.634;9.226;2022-09-09T17:22:42;2.35;;;1.17;;
13204;SDS011;6667;52.634;9.226;2022-09-09T17:25:08;3.85;;;0.90;;
13204;SDS011;6667;52.634;9.226;2022-09-09T17:27:35;1.15;;;0.80;;
13204;SDS011;6667;52.634;9.226;2022-09-09T17:30:02;4.30;;;1.00;;
13204;SDS011;6667;52.634;9.226;2022-09-09T17:32:29;2.28;;;0.80;;
13204;SDS011;6667;52.634;9.226;2022-09-09T17:34:56;2.30;;;0.98;;
13204;SDS011;6667;52.634;9.226;2022-09-09T17:37:24;2.25;;;1.00;;
13204;SDS011;6667;52.634;9.226;2022-09-09T17:39:51;2.03;;;1.10;;
13204;SDS011;6667;52.634;9.226;2022-09-09T17:42:17;3.42;;;1.30;;
13204;SDS011;6667;52.634;9.226;2022-09-09T17:44:44;2.47;;;1.20;;
13204;SDS011;6667;52.634;9.226;2022-09-09T17:47:11;5.07;;;1.10;;
13204;SDS011;6667;52.634;9.226;2022-09-09T17:49:37;1.48;;;1.00;;
13204;SDS011;6667;52.634;9.226;2022-09-09T17:52:04;1.20;;;0.82;;
13204;SDS011;6667;52.634;9.226;2022-09-09T17:54:32;2.17;;;1.00;;
13204;SDS011;6667;52.634;9.226;2022-09-09T17:56:59;4.40;;;1.45;;
13204;SDS011;6667;52.634;9.226;2022-09-09T17:59:25;3.90;;;1.50;;
13204;SDS011;6667;52.634;9.226;2022-09-09T18:01:52;8.25;;;1.95;;
13204;SDS011;6667;52.634;9.226;2022-09-09T18:04:19;2.72;;;1.23;;
13204;SDS011;6667;52.634;9.226;2022-09-09T18:06:46;3.33;;;1.40;;
13204;SDS011;6667;52.634;9.226;2022-09-09T18:09:15;4.78;;;2.20;;
13204;SDS011;6667;52.634;9.226;2022-09-09T18:11:45;3.80;;;1.38;;
13204;SDS011;6667;52.634;9.226;2022-09-09T18:14:14;3.53;;;1.92;;
13204;SDS011;6667;52.634;9.226;2022-09-09T18:16:42;5.38;;;1.58;;
13204;SDS011;6667;52.634;9.226;2022-09-09T18:19:10;4.18;;;1.45;;
13204;SDS011;6667;52.634;9.226;2022-09-09T18:21:40;5.75;;;1.95;;
13204;SDS011;6667;52.634;9.226;2022-09-09T18:24:08;3.28;;;1.70;;
13204;SDS011;6667;52.634;9.226;2022-09-09T18:26:37;3.65;;;1.83;;
13204;SDS011;6667;52.634;9.226;2022-09-09T18:29:07;4.55;;;1.73;;
13204;SDS011;6667;52.634;9.226;2022-09-09T18:31:35;4.30;;;2.38;;
13204;SDS011;6667;52.634;9.226;2022-09-09T18:34:02;4.75;;;1.55;;
13204;SDS011;6667;52.634;9.226;2022-09-09T18:36:32;2.85;;;1.90;;
13204;SDS011;6667;52.634;9.226;2022-09-09T18:39:00;1.88;;;1.40;;
13204;SDS011;6667;52.634;9.226;2022-09-09T18:41:29;1.80;;;1.17;;
13204;SDS011;6667;52.634;9.226;2022-09-09T18:43:58;1.95;;;1.70;;
13204;SDS011;6667;52.634;9.226;2022-09-09T18:46:28;4.07;;;1.00;;
13204;SDS011;6667;52.634;9.226;2022-09-09T18:48:56;1.58;;;0.80;;
13204;SDS011;6667;52.634;9.226;2022-09-09T18:51:25;3.75;;;0.77;;
13204;SDS011;6667;52.634;9.226;2022-09-09T18:53:54;4.90;;;2.45;;
13204;SDS011;6667;52.634;9.226;2022-09-09T18:56:22;4.20;;;1.40;;
13204;SDS011;6667;52.634;9.226;2022-09-09T18:58:50;2.97;;;1.30;;
13204;SDS011;6667;52.634;9.226;2022-09-09T19:01:17;2.92;;;0.70;;
13204;SDS011;6667;52.634;9.226;2022-09-09T19:03:45;2.40;;;0.90;;
13204;SDS011;6667;52.634;9.226;2022-09-09T19:06:15;2.55;;;0.70;;
13204;SDS011;6667;52.634;9.226;2022-09-09T19:08:44;0.68;;;0.68;;
13204;SDS011;6667;52.634;9.226;2022-09-09T19:11:13;4.50;;;0.60;;
13204;SDS011;6667;52.634;9.226;2022-09-09T19:13:42;1.95;;;0.75;;
13204;SDS011;6667;52.634;9.226;2022-09-09T19:16:10;2.88;;;0.70;;
13204;SDS011;6667;52.634;9.226;2022-09-09T19:18:38;2.58;;;1.00;;
13204;SDS011;6667;52.634;9.226;2022-09-09T19:21:10;0.90;;;0.43;;
13204;SDS011;6667;52.634;9.226;2022-09-09T19:23:38;1.63;;;0.65;;
13204;SDS011;6667;52.634;9.226;2022-09-09T19:26:06;0.50;;;0.50;;
13204;SDS011;6667;52.634;9.226;2022-09-09T19:28:35;1.60;;;0.60;;
13204;SDS011;6667;52.634;9.226;2022-09-09T19:31:04;2.45;;;0.70;;
13204;SDS011;6667;52.634;9.226;2022-09-09T19:33:33;0.63;;;0.60;;
13204;SDS011;6667;52.634;9.226;2022-09-09T19:36:01;1.70;;;0.70;;
13204;SDS011;6667;52.634;9.226;2022-09-09T19:38:32;0.85;;;0.52;;
13204;SDS011;6667;52.634;9.226;2022-09-09T19:41:01;2.22;;;0.80;;
13204;SDS011;6667;52.634;9.226;2022-09-09T19:43:29;1.27;;;0.70;;
13204;SDS011;6667;52.634;9.226;2022-09-09T19:45:56;1.25;;;0.60;;